Portada
METAR-TAF:

METAR-TAF

Aeroports :

Aeroport de la Ciutat de Londres

Londres, Anglaterra

latitud: 51-30N, longitud: 000-03E, altitud: 5 m

Observació

L'informe es va fer fa 40 minuts, a les 22:20 UTC
Vent 6 kt del Oest/Sud-Oest
Temperatura 5°C
Humitat 70%
Pressió 1007 hPa
Visibilitat 10 km o més

METAR: EGLC 262220Z AUTO 24006KT 9999 NCD 05/00 Q1007

Hora: 23:00 (23:00 UTC)

Pronòstic

L'informe es va fer fa 5 hores i 54 minuts, a les 17:06 UTC
Pronòstic vàlid del 26 a les 18 UTC al 26 a les 22 UTC
Vent 12 kt del Oest
Visibilitat 10 km o més
Escasses núvols a una alçada de 3000 ft
Evolucionant progressivament
l' 26 a les 20 UTC al 26 a les 22 UTC
Vent 6 kt del Sud-Oest

TAF: EGLC 261706Z 2618/2622 28012KT 9999 FEW030 BECMG 2620/2622 22006KT

Observacions i pronòstics meteorològics de més de 4000 aeroports (METAR i TAF).

Les estacions disponibles són els punts grocs i vermells al mapa.

Posi el ratolí al punt desitjat per veure el nom de l'estació.

Feu clic per veure les observacions i els pronòstics meteorològics.

Per canviar el mapa: feu clic els botons verds amb una creu de color negre per apropar; al botó verd amb un guió per allunyar la imatge; o en les fletxes verdes per a mapes adjacents.


METAR-TAF: